Time;durP1;ratioP1;P1;durP2;ratioP2;P2;SDS_P1;SDS_P2;PMS_P1;PMS_P2;Temp;Humidity;BMP_temperature;BMP_pressure;BME280_temperature;BME280_humidity;BME280_pressure;Samples;Min_cycle;Max_cycle;Signal;HPM_P1;HPM_P2
2021/07/23 14:06:07;;;;;;;14.57;4.05;;;28.80;24.70;;;;;;5592423;22;15222818;-93
2021/07/23 14:09:24;;;;;;;3.53;2.90;;;28.70;24.60;;;;;;6227555;23;20110;-93
2021/07/23 14:12:25;;;;;;;5.18;3.17;;;28.60;24.70;;;;;;6235537;23;20087;-95
2021/07/23 14:14:59;;;;;;;3.42;2.88;;;28.50;24.80;;;;;;6199246;23;20030;-92
2021/07/23 14:17:35;;;;;;;5.57;2.70;;;28.40;25.10;;;;;;6193346;23;20019;-91
2021/07/23 14:20:11;;;;;;;5.78;3.15;;;28.40;25.20;;;;;;6241653;23;20015;-89
2021/07/23 14:22:44;;;;;;;;;;;28.30;25.20;;;;;;6244415;23;20027;-91
2021/07/23 14:25:14;;;;;;;3.42;3.13;;;28.30;25.10;;;;;;6237737;23;19923;-91
2021/07/23 14:27:49;;;;;;;7.18;3.40;;;28.30;25.20;;;;;;6185618;23;20106;-92
2021/07/23 14:30:22;;;;;;;5.17;3.20;;;28.30;26.30;;;;;;6190790;23;20047;-91
2021/07/23 14:33:03;;;;;;;5.47;3.00;;;28.20;25.20;;;;;;6210543;23;20253;-91
2021/07/23 14:35:38;;;;;;;5.30;2.70;;;28.30;25.90;;;;;;6216802;23;20101;-91
2021/07/23 14:38:10;;;;;;;6.40;3.40;;;28.20;25.80;;;;;;6215662;23;20016;-92
2021/07/23 14:40:41;;;;;;;10.95;3.85;;;28.20;25.70;;;;;;6215726;23;20098;-92
2021/07/23 14:43:23;;;;;;;14.43;3.63;;;28.20;25.80;;;;;;6166651;23;20382;-94
2021/07/23 14:45:53;;;;;;;5.20;3.05;;;28.30;26.10;;;;;;6165523;23;20053;-92
2021/07/23 14:48:27;;;;;;;6.85;3.03;;;28.30;25.70;;;;;;6166657;23;20094;-92
2021/07/23 14:50:59;;;;;;;4.72;3.65;;;28.20;25.70;;;;;;6166108;23;20019;-90
2021/07/23 14:53:36;;;;;;;6.65;2.97;;;28.20;25.60;;;;;;6216481;23;20025;-92
2021/07/23 14:56:10;;;;;;;6.78;3.15;;;28.10;25.40;;;;;;6191261;23;20371;-91
2021/07/23 14:58:42;;;;;;;4.15;2.92;;;28.10;26.00;;;;;;6193587;23;20023;-93
2021/07/23 15:01:14;;;;;;;3.88;3.00;;;28.00;26.00;;;;;;6196886;23;20016;-91
2021/07/23 15:03:54;;;;;;;5.20;3.03;;;28.00;25.90;;;;;;6251594;23;20118;-91
2021/07/23 15:06:26;;;;;;;8.57;3.13;;;27.90;26.10;;;;;;6145841;23;20028;-92
2021/07/23 15:08:57;;;;;;;10.02;3.08;;;27.90;26.20;;;;;;6186871;23;20020;-93
2021/07/23 15:11:33;;;;;;;6.50;3.33;;;27.80;26.60;;;;;;6162512;23;20020;-91
2021/07/23 15:14:08;;;;;;;10.50;4.28;;;27.80;26.40;;;;;;6141437;23;20019;-93
2021/07/23 15:16:46;;;;;;;4.55;3.65;;;27.70;26.60;;;;;;6162599;23;20494;-91
2021/07/23 15:19:24;;;;;;;10.50;3.88;;;27.70;26.20;;;;;;6213192;23;20051;-92
2021/07/23 15:21:58;;;;;;;7.18;3.55;;;27.70;26.30;;;;;;6161272;23;20387;-91
2021/07/23 15:24:28;;;;;;;11.15;3.40;;;27.70;26.20;;;;;;6164485;23;20019;-91
2021/07/23 15:26:58;;;;;;;6.25;3.47;;;27.60;26.20;;;;;;6185227;23;20360;-91
2021/07/23 15:29:30;;;;;;;5.68;3.00;;;27.60;26.30;;;;;;6163787;23;20020;-93
2021/07/23 15:32:01;;;;;;;5.55;3.33;;;27.60;26.40;;;;;;6113202;23;20015;-93
2021/07/23 15:34:31;;;;;;;5.95;3.45;;;27.50;26.10;;;;;;6167904;23;20066;-91
2021/07/23 15:37:02;;;;;;;9.10;3.45;;;27.50;26.10;;;;;;6166693;23;20024;-90
2021/07/23 15:39:42;;;;;;;6.13;3.30;;;27.50;26.20;;;;;;6159735;23;20499;-93
2021/07/23 15:42:21;;;;;;;6.63;3.30;;;27.50;26.30;;;;;;6164344;23;20016;-89
2021/07/23 15:44:55;;;;;;;3.55;3.15;;;27.40;26.80;;;;;;6160724;23;20024;-91
2021/07/23 15:47:25;;;;;;;8.05;3.67;;;27.40;26.60;;;;;;6170004;23;20032;-91
2021/07/23 15:49:54;;;;;;;6.88;3.60;;;27.30;26.60;;;;;;6128124;23;20023;-88
2021/07/23 15:52:55;;;;;;;4.45;3.20;;;27.20;27.10;;;;;;6222763;23;20117;-91
2021/07/23 15:55:26;;;;;;;8.98;3.50;;;27.20;27.00;;;;;;6181640;23;20372;-88
2021/07/23 15:58:09;;;;;;;5.97;3.35;;;27.10;26.90;;;;;;6189005;23;20027;-90
2021/07/23 16:00:41;;;;;;;6.57;3.05;;;27.10;27.50;;;;;;6162966;23;20007;-92
2021/07/23 16:03:14;;;;;;;10.02;3.67;;;27.10;27.50;;;;;;6191897;23;20036;-93
2021/07/23 16:05:45;;;;;;;10.60;3.92;;;27.00;27.50;;;;;;6196859;23;20102;-92
2021/07/23 16:08:17;;;;;;;5.72;3.17;;;27.00;27.70;;;;;;6225294;23;20019;-92
2021/07/23 16:11:04;;;;;;;11.60;3.42;;;26.90;27.50;;;;;;6225339;23;20023;-92
2021/07/23 16:13:39;;;;;;;10.32;3.80;;;26.90;27.80;;;;;;6218606;23;20026;-91
2021/07/23 16:16:13;;;;;;;5.38;3.70;;;26.90;28.20;;;;;;6220992;23;20023;-93
2021/07/23 16:18:47;;;;;;;8.52;4.15;;;26.80;28.00;;;;;;6168232;23;20038;-92
2021/07/23 16:21:25;;;;;;;11.35;3.97;;;26.70;28.30;;;;;;6169491;23;20022;-91
2021/07/23 16:24:06;;;;;;;10.93;4.00;;;26.70;28.30;;;;;;6169566;23;20016;-91
2021/07/23 16:26:45;;;;;;;5.63;4.07;;;26.60;28.30;;;;;;6168978;23;20031;-91
2021/07/23 16:29:25;;;;;;;11.07;4.20;;;26.60;28.10;;;;;;6195813;23;20046;-94
2021/07/23 16:31:57;;;;;;;6.90;3.80;;;26.50;28.40;;;;;;6172738;23;20026;-92
2021/07/23 16:34:28;;;;;;;10.57;4.50;;;26.50;28.30;;;;;;6219985;23;20046;-94
2021/07/23 16:37:08;;;;;;;10.63;3.78;;;26.40;28.70;;;;;;6240608;23;20027;-91
2021/07/23 16:39:41;;;;;;;9.27;4.30;;;26.40;29.10;;;;;;6239295;23;20098;-93
2021/07/23 16:42:45;;;;;;;9.90;4.30;;;26.30;29.00;;;;;;6226099;23;20034;-95
2021/07/23 16:45:18;;;;;;;10.18;4.20;;;26.20;29.30;;;;;;6187817;22;20003;-95
2021/07/23 16:51:22;;;;;;;8.68;4.53;;;26.10;29.50;;;;;;6203533;23;20402;-92
2021/07/23 16:53:54;;;;;;;7.35;3.80;;;26.00;29.10;;;;;;6172514;23;20121;-91
2021/07/23 16:56:43;;;;;;;10.93;4.55;;;25.90;29.00;;;;;;6191048;23;20022;-93
2021/07/23 16:59:14;;;;;;;7.78;4.47;;;25.90;28.90;;;;;;6205094;23;20016;-92
2021/07/23 17:01:48;;;;;;;8.90;5.10;;;25.90;29.10;;;;;;6236863;23;20073;-91
2021/07/23 17:04:18;;;;;;;12.02;5.47;;;25.80;30.10;;;;;;6213449;23;20018;-90
2021/07/23 17:06:49;;;;;;;14.23;5.10;;;25.80;30.00;;;;;;6188687;23;20023;-91
2021/07/23 17:09:17;;;;;;;11.35;5.20;;;25.70;29.70;;;;;;6169473;23;20147;-86
2021/07/23 17:12:08;;;;;;;9.88;5.00;;;25.70;30.50;;;;;;6216692;23;20024;-88
2021/07/23 17:14:42;;;;;;;9.02;4.80;;;25.60;31.00;;;;;;6196123;23;20016;-88
2021/07/23 17:17:12;;;;;;;10.40;5.03;;;25.60;30.70;;;;;;6165876;23;20409;-88
2021/07/23 17:19:40;;;;;;;9.88;5.00;;;25.50;30.50;;;;;;6163190;23;20024;-87
2021/07/23 17:22:12;;;;;;;10.18;4.85;;;25.40;30.20;;;;;;6237327;23;20043;-87
2021/07/23 17:24:44;;;;;;;11.65;5.00;;;25.40;30.50;;;;;;6204863;23;20024;-86
2021/07/23 17:27:20;;;;;;;10.55;5.18;;;25.40;30.50;;;;;;6212585;23;20506;-87
2021/07/23 17:29:51;;;;;;;8.73;5.05;;;25.30;30.70;;;;;;6211551;23;20042;-87
2021/07/23 17:32:25;;;;;;;10.95;5.22;;;25.20;31.50;;;;;;6164003;23;20042;-87
2021/07/23 17:35:02;;;;;;;12.10;5.40;;;25.20;32.40;;;;;;6188518;23;20019;-87
2021/07/23 17:37:35;;;;;;;12.13;5.32;;;25.10;32.70;;;;;;6160327;23;20023;-88
2021/07/23 17:40:03;;;;;;;8.50;5.45;;;25.00;32.90;;;;;;6186372;23;20020;-85
2021/07/23 17:42:38;;;;;;;10.60;5.82;;;25.00;33.20;;;;;;6186214;23;20012;-86
2021/07/23 17:47:59;;;;;;;11.52;6.10;;;24.90;32.40;;;;;;6236630;23;20034;-90
2021/07/23 17:50:27;;;;;;;13.20;5.97;;;24.90;32.80;;;;;;6207096;23;20492;-87
2021/07/23 17:52:57;;;;;;;13.55;5.63;;;24.80;33.20;;;;;;6206547;23;20086;-86
2021/07/23 17:55:29;;;;;;;13.75;5.95;;;24.80;33.20;;;;;;6160796;23;20019;-85
2021/07/23 17:58:00;;;;;;;9.95;5.50;;;24.80;33.30;;;;;;6209953;23;20495;-86
2021/07/23 18:00:31;;;;;;;10.38;5.70;;;24.70;33.40;;;;;;6185677;23;20102;-87
2021/07/23 18:03:03;;;;;;;16.15;5.95;;;24.60;34.00;;;;;;6209755;23;20015;-87
2021/07/23 18:05:38;;;;;;;10.80;6.07;;;24.60;34.10;;;;;;6179482;23;20471;-86
2021/07/23 18:08:13;;;;;;;17.27;6.97;;;24.60;34.80;;;;;;6178009;23;20027;-87
2021/07/23 18:10:40;;;;;;;14.88;6.60;;;24.50;34.30;;;;;;6154482;23;20020;-85
2021/07/23 18:13:08;;;;;;;14.50;6.22;;;24.50;34.30;;;;;;6155761;23;20020;-88
2021/07/23 18:15:51;;;;;;;17.48;6.18;;;24.50;34.10;;;;;;6130847;23;20031;-86
2021/07/23 18:18:19;;;;;;;20.80;6.20;;;24.40;34.80;;;;;;6155900;23;20035;-87
2021/07/23 18:20:48;;;;;;;20.95;5.80;;;24.40;34.60;;;;;;6154809;23;20047;-87
2021/07/23 18:23:16;;;;;;;22.65;6.10;;;24.30;35.10;;;;;;6156438;23;20016;-86
2021/07/23 18:25:43;;;;;;;28.42;7.00;;;24.30;35.10;;;;;;6180613;23;20023;-86
2021/07/23 18:28:10;;;;;;;;;;;24.30;35.30;;;;;;6084591;23;20038;-88
2021/07/23 18:30:45;;;;;;;23.63;6.45;;;24.20;35.10;;;;;;6158921;23;19927;-88
2021/07/23 18:33:13;;;;;;;20.38;6.35;;;24.20;35.40;;;;;;6156441;23;20043;-89
2021/07/23 18:35:51;;;;;;;17.50;6.05;;;24.10;35.90;;;;;;6154288;23;20020;-87
2021/07/23 18:38:20;;;;;;;23.77;6.32;;;24.00;36.40;;;;;;6130343;23;20016;-87
2021/07/23 18:40:52;;;;;;;21.63;6.63;;;23.90;36.80;;;;;;6179030;23;20514;-87
2021/07/23 18:43:19;;;;;;;19.48;5.70;;;23.80;37.20;;;;;;6138380;23;20066;-87
2021/07/23 18:45:51;;;;;;;18.98;5.93;;;23.70;37.50;;;;;;6163978;23;20028;-86
2021/07/23 18:48:20;;;;;;;19.85;6.05;;;23.50;37.70;;;;;;6157687;23;20050;-87
2021/07/23 18:50:47;;;;;;;22.67;6.82;;;23.40;38.10;;;;;;6155398;23;20482;-89
2021/07/23 18:53:13;;;;;;;;;;;23.30;38.40;;;;;;6107225;23;20008;-87
2021/07/23 18:55:41;;;;;;;21.33;6.05;;;23.20;38.30;;;;;;6130196;23;20005;-85
2021/07/23 18:58:07;;;;;;;25.63;5.93;;;23.20;38.50;;;;;;6130677;23;20483;-86
2021/07/23 19:00:34;;;;;;;19.83;5.75;;;23.10;39.00;;;;;;6106017;23;20106;-85
2021/07/23 19:03:03;;;;;;;19.20;6.10;;;23.00;39.40;;;;;;6130112;23;20371;-85
2021/07/23 19:05:29;;;;;;;19.13;6.28;;;22.90;39.50;;;;;;6103156;23;20047;-88
2021/07/23 19:07:55;;;;;;;;;;;22.90;39.70;;;;;;6111497;23;20026;-88
2021/07/23 19:10:21;;;;;;;;;;;22.70;39.60;;;;;;6136492;23;20289;-88
2021/07/23 19:12:48;;;;;;;26.50;6.82;;;22.70;39.20;;;;;;6184529;23;19923;-87
2021/07/23 19:15:17;;;;;;;20.95;5.90;;;22.70;39.50;;;;;;6136191;23;20076;-87
2021/07/23 19:17:54;;;;;;;22.45;6.18;;;22.60;39.90;;;;;;6136620;23;20016;-89
2021/07/23 19:20:20;;;;;;;21.15;5.72;;;22.50;40.60;;;;;;6161922;23;20030;-87
2021/07/23 19:22:47;;;;;;;21.85;7.53;;;22.50;40.90;;;;;;6160059;23;20022;-88
2021/07/23 19:25:14;;;;;;;19.75;6.03;;;22.30;41.00;;;;;;6160978;23;20016;-87
2021/07/23 19:27:40;;;;;;;;;;;22.30;41.20;;;;;;6160343;23;20435;-85
2021/07/23 19:30:08;;;;;;;23.40;5.88;;;22.30;41.10;;;;;;6184769;23;19938;-87
2021/07/23 19:32:35;;;;;;;26.92;6.45;;;22.30;41.10;;;;;;6136475;23;20094;-85
2021/07/23 19:35:03;;;;;;;13.18;5.55;;;22.20;41.70;;;;;;6184247;23;20490;-87
2021/07/23 19:37:29;;;;;;;19.75;6.00;;;22.10;41.90;;;;;;6159855;23;20011;-88
2021/07/23 19:40:00;;;;;;;;;;;22.10;41.90;;;;;;6138340;23;20046;-86
2021/07/23 19:42:26;;;;;;;17.58;5.90;;;22.00;41.80;;;;;;6190420;23;20406;-87
2021/07/23 19:44:53;;;;;;;21.38;5.72;;;22.00;41.60;;;;;;6161906;23;20015;-86
2021/07/23 19:47:19;;;;;;;13.63;5.78;;;21.90;41.80;;;;;;6166113;23;20015;-86
2021/07/23 19:49:45;;;;;;;15.57;5.15;;;21.90;42.10;;;;;;6212227;23;20030;-87
2021/07/23 19:52:11;;;;;;;17.42;5.40;;;21.80;42.40;;;;;;6162080;23;20061;-86
2021/07/23 19:54:38;;;;;;;18.30;5.90;;;21.80;42.60;;;;;;6186050;23;20353;-86
2021/07/23 19:57:04;;;;;;;22.17;6.45;;;21.70;42.80;;;;;;6114521;23;20019;-86
2021/07/23 19:59:32;;;;;;;21.08;6.20;;;21.70;43.00;;;;;;6144598;23;20015;-86
2021/07/23 20:02:00;;;;;;;27.73;6.82;;;21.60;43.10;;;;;;6171467;23;20011;-84
2021/07/23 20:04:26;;;;;;;19.65;6.72;;;21.60;43.50;;;;;;6145826;23;20020;-86
2021/07/23 20:06:52;;;;;;;26.00;6.47;;;21.60;43.60;;;;;;6140851;23;20012;-85
2021/07/23 20:09:19;;;;;;;19.27;6.45;;;21.60;43.50;;;;;;6198552;23;20078;-85
2021/07/23 20:11:45;;;;;;;15.80;6.40;;;21.50;43.50;;;;;;6158862;23;20022;-85
2021/07/23 20:14:11;;;;;;;22.20;6.10;;;21.50;43.60;;;;;;6160149;23;20060;-87
2021/07/23 20:16:38;;;;;;;18.30;6.10;;;21.50;43.80;;;;;;6175316;23;20008;-85
2021/07/23 20:19:04;;;;;;;23.50;6.22;;;21.40;44.00;;;;;;6169343;23;20031;-86
2021/07/23 20:21:31;;;;;;;20.70;6.25;;;21.40;44.20;;;;;;6164432;23;20431;-84
2021/07/23 20:23:57;;;;;;;21.08;6.20;;;21.30;44.30;;;;;;6168914;23;20102;-85
2021/07/23 20:26:24;;;;;;;19.35;6.03;;;21.30;44.60;;;;;;6164972;23;20011;-86
2021/07/23 20:28:50;;;;;;;17.40;6.38;;;21.30;44.70;;;;;;6119047;23;20023;-87
2021/07/23 20:31:17;;;;;;;13.30;5.80;;;21.30;44.90;;;;;;6140833;23;20382;-86
2021/07/23 20:33:43;;;;;;;;;;;21.20;44.80;;;;;;6140643;23;20033;-87
2021/07/23 20:36:10;;;;;;;17.17;6.47;;;21.20;45.90;;;;;;6161820;23;19923;-86
2021/07/23 20:38:37;;;;;;;21.85;7.05;;;21.20;44.40;;;;;;6172446;23;20021;-87
2021/07/23 20:41:04;;;;;;;25.27;5.97;;;21.10;44.60;;;;;;6116461;23;20008;-86
2021/07/23 20:43:31;;;;;;;15.85;6.22;;;21.10;44.80;;;;;;6164060;23;20382;-86
2021/07/23 20:45:58;;;;;;;;;;;21.00;46.00;;;;;;6138776;23;20015;-86
2021/07/23 20:48:25;;;;;;;18.20;6.45;;;21.00;44.70;;;;;;6187682;23;20055;-87
2021/07/23 20:50:53;;;;;;;16.42;6.50;;;21.00;44.60;;;;;;6160956;23;20030;-87
2021/07/23 20:53:20;;;;;;;23.83;6.45;;;20.90;45.00;;;;;;6161823;23;20086;-87
2021/07/23 20:55:48;;;;;;;26.55;6.38;;;20.90;45.30;;;;;;6161464;23;20085;-87
2021/07/23 20:58:14;;;;;;;22.33;6.05;;;20.80;45.50;;;;;;6136071;23;20015;-87
2021/07/23 21:00:42;;;;;;;20.38;6.80;;;20.80;45.80;;;;;;6111945;23;20030;-86
2021/07/23 21:03:08;;;;;;;19.27;6.55;;;20.80;46.00;;;;;;6184591;23;20019;-86
2021/07/23 21:05:34;;;;;;;16.95;7.30;;;20.70;46.20;;;;;;6135433;23;20032;-86
2021/07/23 21:08:01;;;;;;;21.35;7.97;;;20.70;46.40;;;;;;6134858;23;20035;-86
2021/07/23 21:10:27;;;;;;;20.67;6.90;;;20.70;46.50;;;;;;6160010;23;20018;-88
2021/07/23 21:12:53;;;;;;;19.05;6.65;;;20.60;46.60;;;;;;6159797;23;20383;-87
2021/07/23 21:15:20;;;;;;;15.63;6.38;;;20.60;46.90;;;;;;6160095;23;20379;-86
2021/07/23 21:17:46;;;;;;;18.17;6.82;;;20.60;47.30;;;;;;6135925;23;20019;-86
2021/07/23 21:20:13;;;;;;;14.98;6.70;;;20.60;47.30;;;;;;6160756;23;20474;-86
2021/07/23 21:22:39;;;;;;;;;;;20.50;47.30;;;;;;6112009;23;20422;-86
2021/07/23 21:25:06;;;;;;;;;;;20.50;47.10;;;;;;6185810;23;19923;-87
2021/07/23 21:27:32;;;;;;;14.98;5.80;;;20.50;46.70;;;;;;6136491;23;19923;-86
2021/07/23 21:29:59;;;;;;;15.77;5.85;;;20.50;46.50;;;;;;6160218;23;20031;-87
2021/07/23 21:32:25;;;;;;;15.73;5.75;;;20.50;46.90;;;;;;6136169;23;20011;-87
2021/07/23 21:34:51;;;;;;;15.02;5.70;;;20.50;47.30;;;;;;6185438;23;20086;-85
2021/07/23 21:37:19;;;;;;;13.00;5.70;;;20.40;47.40;;;;;;6136772;23;20019;-85
2021/07/23 21:39:45;;;;;;;14.65;5.80;;;20.40;47.60;;;;;;6161724;23;20019;-86
2021/07/23 21:42:12;;;;;;;14.07;5.82;;;20.30;47.80;;;;;;6186683;23;20011;-86
2021/07/23 21:44:38;;;;;;;17.17;6.10;;;20.30;48.10;;;;;;6136524;23;20486;-86
2021/07/23 21:47:04;;;;;;;11.65;5.75;;;20.30;48.40;;;;;;6161087;23;20008;-85
2021/07/23 21:49:31;;;;;;;17.00;6.00;;;20.20;48.60;;;;;;6160733;23;20344;-85
2021/07/23 21:51:57;;;;;;;17.13;6.53;;;20.20;48.80;;;;;;6165552;23;20038;-86
2021/07/23 21:54:23;;;;;;;11.63;5.70;;;20.20;49.00;;;;;;6170790;23;20019;-87
2021/07/23 21:56:50;;;;;;;13.55;5.72;;;20.10;49.10;;;;;;6185921;23;20068;-85
2021/07/23 21:59:16;;;;;;;12.73;5.20;;;20.00;49.30;;;;;;6111703;23;20056;-86
2021/07/23 22:01:43;;;;;;;13.23;4.78;;;20.10;49.50;;;;;;6112279;23;20019;-85
2021/07/23 22:04:09;;;;;;;;;;;20.00;49.70;;;;;;6112118;23;20094;-85
2021/07/23 22:06:35;;;;;;;;;;;20.00;49.70;;;;;;6185790;23;19923;-87
2021/07/23 22:09:02;;;;;;;12.32;5.43;;;20.00;49.30;;;;;;6186189;23;19920;-85
2021/07/23 22:11:28;;;;;;;19.98;5.53;;;19.90;49.30;;;;;;6136711;23;20486;-86
2021/07/23 22:13:54;;;;;;;14.02;5.72;;;19.90;49.80;;;;;;6137579;23;20020;-84
2021/07/23 22:16:21;;;;;;;12.07;5.03;;;19.80;50.10;;;;;;6161074;23;20474;-85
2021/07/23 22:18:47;;;;;;;;;;;19.90;50.40;;;;;;6161542;23;20033;-86
2021/07/23 22:21:13;;;;;;;;;;;19.80;50.40;;;;;;6185116;23;20390;-86
2021/07/23 22:23:40;;;;;;;;;;;19.80;50.10;;;;;;6185970;23;19923;-86
2021/07/23 22:26:06;;;;;;;11.05;5.40;;;19.80;49.80;;;;;;6161006;23;19926;-86
2021/07/23 22:28:32;;;;;;;10.63;5.28;;;19.80;49.90;;;;;;6160683;23;20020;-86
2021/07/23 22:30:59;;;;;;;12.13;5.53;;;19.80;50.50;;;;;;6184883;23;20008;-85
2021/07/23 22:33:25;;;;;;;17.30;5.90;;;19.70;50.90;;;;;;6209835;23;20015;-85
2021/07/23 22:35:51;;;;;;;13.90;6.13;;;19.80;51.10;;;;;;6112292;23;20020;-84
2021/07/23 22:38:18;;;;;;;11.60;5.43;;;19.80;51.40;;;;;;6111434;23;20023;-85
2021/07/23 22:40:44;;;;;;;14.30;6.72;;;19.80;51.70;;;;;;6135954;23;20500;-86
2021/07/23 22:43:10;;;;;;;14.18;5.13;;;19.70;51.70;;;;;;6163617;23;20015;-86
2021/07/23 22:45:37;;;;;;;9.38;5.22;;;19.70;51.80;;;;;;6166591;23;20020;-84
2021/07/23 22:48:04;;;;;;;10.40;5.00;;;19.80;52.00;;;;;;6163841;23;20502;-84
2021/07/23 22:50:30;;;;;;;13.25;4.82;;;19.70;52.00;;;;;;6185543;23;20033;-86
2021/07/23 22:52:58;;;;;;;8.55;4.60;;;19.80;52.10;;;;;;6184930;23;20458;-85
2021/07/23 22:55:25;;;;;;;10.10;5.70;;;19.70;52.20;;;;;;6137998;23;20035;-86
2021/07/23 22:57:51;;;;;;;11.88;5.30;;;19.70;52.30;;;;;;6136170;23;20019;-85
2021/07/23 23:00:18;;;;;;;13.85;5.95;;;19.70;52.60;;;;;;6137175;23;20054;-85
2021/07/23 23:02:45;;;;;;;11.48;4.78;;;19.70;52.70;;;;;;6161713;23;20084;-87
2021/07/23 23:05:12;;;;;;;11.50;5.20;;;19.70;52.70;;;;;;6138261;23;20111;-85
2021/07/23 23:07:38;;;;;;;7.90;4.60;;;19.70;52.90;;;;;;6186818;23;20030;-84
2021/07/23 23:10:05;;;;;;;11.00;4.80;;;19.70;53.00;;;;;;6162006;23;20023;-84
2021/07/23 23:12:31;;;;;;;9.43;4.82;;;19.70;53.00;;;;;;6137558;23;20015;-86
2021/07/23 23:14:58;;;;;;;11.05;4.95;;;19.70;53.10;;;;;;6166773;23;20015;-87
2021/07/23 23:17:24;;;;;;;10.90;4.60;;;19.70;53.20;;;;;;6165573;23;20031;-86
2021/07/23 23:19:50;;;;;;;7.65;5.30;;;19.70;53.20;;;;;;6160756;23;20015;-86
2021/07/23 23:22:17;;;;;;;8.70;4.38;;;19.70;53.30;;;;;;6185949;23;20019;-86
2021/07/23 23:24:43;;;;;;;7.55;5.10;;;19.70;53.30;;;;;;6112122;23;20019;-87
2021/07/23 23:27:09;;;;;;;5.80;5.13;;;19.70;53.40;;;;;;6186230;23;20367;-86
2021/07/23 23:29:35;;;;;;;8.25;5.28;;;19.60;53.50;;;;;;6138022;23;20039;-86
2021/07/23 23:32:02;;;;;;;7.05;4.93;;;19.60;53.70;;;;;;6185333;23;20023;-85
2021/07/23 23:34:28;;;;;;;9.38;5.10;;;19.60;53.70;;;;;;6159975;23;20073;-87
2021/07/23 23:36:55;;;;;;;19.00;5.80;;;19.60;53.80;;;;;;6136410;23;20490;-84
2021/07/23 23:39:21;;;;;;;12.55;4.97;;;19.60;53.80;;;;;;6159917;23;20032;-87
2021/07/23 23:41:47;;;;;;;10.05;5.60;;;19.50;53.90;;;;;;6160150;23;20025;-86
2021/07/23 23:44:13;;;;;;;10.10;5.50;;;19.50;54.00;;;;;;6135640;23;20015;-86
2021/07/23 23:46:40;;;;;;;9.95;5.00;;;19.50;54.10;;;;;;6135678;23;20091;-84
2021/07/23 23:49:06;;;;;;;10.90;5.50;;;19.50;54.30;;;;;;6185164;23;20008;-86
2021/07/23 23:51:33;;;;;;;;;;;19.50;54.50;;;;;;6185879;23;20050;-87
2021/07/23 23:54:01;;;;;;;8.07;5.20;;;19.50;54.40;;;;;;6207909;23;19919;-86
2021/07/23 23:56:27;;;;;;;9.95;5.32;;;19.50;54.30;;;;;;6159802;23;20072;-87
2021/07/23 23:58:54;;;;;;;9.60;5.13;;;19.50;54.70;;;;;;6135196;23;20011;-86
